Terminal Aerodrome Forecast
Issued by NWS

Home | Current Version | Previous Version | Text Only | Print | Product List | Glossary On
Versions: 1 2 3 4 5 6 7 8 9 10 11 12 13 14 15 16 17 18 19 20 21 22 23 24 25 26
000
FTAK31 PANC 220531
TAFADU
TAF
PADU 220531Z 2206/2306 31025G35KT P6SM -SHRASN SCT025 OVC035
      TEMPO 2206/2210 BKN025
     FM222000 32018G26KT P6SM BKN035=

USA.gov is the U.S. government's official web portal to all federal, state and local government web resources and services.